Time;durP1;ratioP1;P1;durP2;ratioP2;P2;SDS_P1;SDS_P2;PMS_P1;PMS_P2;Temp;Humidity;BMP_temperature;BMP_pressure;BME280_temperature;BME280_humidity;BME280_pressure;Samples;Min_cycle;Max_cycle;Signal;HPM_P1;HPM_P2
2024/04/17 00:00:37;;;;;;;11.32;2.40;;;6.00;99.90;;;;;;5447802;26;20006;-77
2024/04/17 00:03:03;;;;;;;15.85;2.60;;;6.00;99.90;;;;;;5433909;26;20151;-77
2024/04/17 00:05:28;;;;;;;17.00;2.53;;;6.00;99.90;;;;;;5439236;26;20006;-77
2024/04/17 00:07:54;;;;;;;11.20;2.20;;;6.00;99.90;;;;;;5432336;26;20007;-77
2024/04/17 00:10:22;;;;;;;15.40;2.40;;;6.00;99.90;;;;;;5433416;26;20022;-78
2024/04/17 00:12:48;;;;;;;9.80;3.00;;;5.90;99.90;;;;;;5448703;26;20006;-77
2024/04/17 00:15:14;;;;;;;9.43;1.98;;;5.90;99.90;;;;;;5444468;26;20039;-77
2024/04/17 00:20:10;;;;;;;11.27;2.17;;;5.90;99.90;;;;;;5409434;26;20047;-75
2024/04/17 00:22:36;;;;;;;10.05;2.40;;;5.80;99.90;;;;;;5402959;26;19996;-75
2024/04/17 00:25:02;;;;;;;5.82;1.80;;;5.80;99.90;;;;;;5413284;26;20448;-75
2024/04/17 00:27:27;;;;;;;15.45;2.72;;;5.80;99.90;;;;;;5401811;26;20487;-75
2024/04/17 00:29:53;;;;;;;5.95;1.95;;;5.70;99.90;;;;;;5409117;26;20008;-75
2024/04/17 00:32:19;;;;;;;13.65;2.15;;;5.60;99.90;;;;;;5402737;26;20658;-75
2024/04/17 00:34:44;;;;;;;8.18;2.20;;;5.60;99.90;;;;;;5413022;26;20013;-75
2024/04/17 00:37:10;;;;;;;8.35;2.00;;;5.60;99.90;;;;;;5404128;26;20016;-75
2024/04/17 00:39:36;;;;;;;7.80;1.88;;;5.50;99.90;;;;;;5412781;26;20035;-75
2024/04/17 00:42:02;;;;;;;12.63;2.35;;;5.50;99.90;;;;;;5411441;26;20367;-75
2024/04/17 00:44:28;;;;;;;5.88;1.90;;;5.40;99.90;;;;;;5412562;26;20010;-75
2024/04/17 00:46:54;;;;;;;8.27;1.90;;;5.40;99.90;;;;;;5412242;26;20008;-75
2024/04/17 00:49:20;;;;;;;10.68;2.50;;;5.40;99.90;;;;;;5409342;26;20410;-75
2024/04/17 00:51:46;;;;;;;12.18;2.40;;;5.30;99.90;;;;;;5412975;26;20067;-75
2024/04/17 00:54:13;;;;;;;7.97;2.30;;;5.30;99.90;;;;;;5415020;26;20000;-75
2024/04/17 00:56:40;;;;;;;12.35;2.45;;;5.30;99.90;;;;;;5412273;26;20354;-75
2024/04/17 00:59:07;;;;;;;12.63;2.40;;;5.30;99.90;;;;;;5412644;26;20003;-75
2024/04/17 01:01:32;;;;;;;6.82;2.47;;;5.20;99.90;;;;;;5410839;26;20014;-74
2024/04/17 01:03:58;;;;;;;13.73;2.80;;;5.30;99.90;;;;;;5412722;26;20000;-75
2024/04/17 01:06:25;;;;;;;8.00;2.38;;;5.20;99.90;;;;;;5411389;26;20012;-75
2024/04/17 01:08:50;;;;;;;11.65;2.67;;;5.20;99.90;;;;;;5406096;26;20009;-75
2024/04/17 01:11:17;;;;;;;7.18;2.17;;;5.20;99.90;;;;;;5409870;26;20468;-74
2024/04/17 01:13:42;;;;;;;8.60;2.47;;;5.20;99.90;;;;;;5413180;26;20011;-75
2024/04/17 01:16:08;;;;;;;8.30;2.35;;;5.20;99.90;;;;;;5416904;26;20035;-75
2024/04/17 01:18:36;;;;;;;11.88;2.40;;;5.20;99.90;;;;;;5426558;26;20553;-75
2024/04/17 01:21:03;;;;;;;7.10;2.35;;;5.10;99.90;;;;;;5450721;26;20479;-75
2024/04/17 01:23:28;;;;;;;10.55;2.28;;;5.10;99.90;;;;;;5451407;26;20006;-75
2024/04/17 01:25:54;;;;;;;6.72;1.98;;;5.10;99.90;;;;;;5448277;26;19998;-75
2024/04/17 01:28:20;;;;;;;9.90;2.20;;;5.00;99.90;;;;;;5448906;26;19999;-75
2024/04/17 01:30:45;;;;;;;10.50;2.25;;;5.10;99.90;;;;;;5437525;26;20015;-75
2024/04/17 01:33:11;;;;;;;7.65;2.22;;;5.00;99.90;;;;;;5439709;26;20002;-74
2024/04/17 01:35:37;;;;;;;8.23;2.55;;;5.00;99.90;;;;;;5451667;26;20385;-75
2024/04/17 01:38:03;;;;;;;11.60;2.60;;;5.00;99.90;;;;;;5450973;26;20014;-76
2024/04/17 01:40:29;;;;;;;13.43;2.53;;;5.00;99.90;;;;;;5451838;26;20007;-75
2024/04/17 01:42:55;;;;;;;11.43;2.90;;;5.00;99.90;;;;;;5453677;26;20006;-75
2024/04/17 01:45:21;;;;;;;9.02;2.72;;;5.00;99.90;;;;;;5448179;26;20018;-75
2024/04/17 01:47:46;;;;;;;9.07;2.67;;;5.00;99.90;;;;;;5445385;26;20379;-75
2024/04/17 01:50:12;;;;;;;11.88;3.20;;;5.00;99.90;;;;;;5433440;26;20007;-75
2024/04/17 01:52:38;;;;;;;12.32;3.08;;;5.00;99.90;;;;;;5451855;26;20017;-75
2024/04/17 01:55:06;;;;;;;8.75;3.00;;;5.00;99.90;;;;;;5432494;26;20015;-75
2024/04/17 01:57:31;;;;;;;14.20;3.00;;;5.00;99.90;;;;;;5451466;26;19999;-75
2024/04/17 01:59:57;;;;;;;11.10;3.17;;;5.00;99.90;;;;;;5451262;26;20456;-75
2024/04/17 02:02:22;;;;;;;9.55;2.63;;;5.00;99.90;;;;;;5436472;26;20077;-75
2024/04/17 02:04:48;;;;;;;14.05;3.08;;;5.00;99.90;;;;;;5451512;26;19999;-75
2024/04/17 02:07:14;;;;;;;9.73;2.70;;;5.00;99.90;;;;;;5445507;26;20397;-75
2024/04/17 02:09:39;;;;;;;9.70;2.60;;;5.10;99.90;;;;;;5455966;26;19999;-77
2024/04/17 02:12:06;;;;;;;12.63;2.72;;;5.10;99.90;;;;;;5459237;26;20031;-77
2024/04/17 02:14:32;;;;;;;10.02;2.50;;;5.10;99.90;;;;;;5425645;26;20044;-77
2024/04/17 02:16:58;;;;;;;9.65;2.78;;;5.10;99.90;;;;;;5454573;26;19995;-77
2024/04/17 02:19:23;;;;;;;9.95;2.75;;;5.10;99.90;;;;;;5454825;26;20007;-77
2024/04/17 02:21:49;;;;;;;13.43;3.03;;;5.10;99.90;;;;;;5456731;26;20017;-78
2024/04/17 02:24:15;;;;;;;10.27;3.33;;;5.10;99.90;;;;;;5457035;26;20013;-77
2024/04/17 02:26:40;;;;;;;8.05;2.50;;;5.10;99.90;;;;;;5457779;26;20006;-78
2024/04/17 02:29:06;;;;;;;6.85;2.53;;;5.20;99.90;;;;;;5455974;26;20015;-78
2024/04/17 02:31:32;;;;;;;9.55;3.47;;;5.40;99.90;;;;;;5424933;26;20568;-78
2024/04/17 02:33:57;;;;;;;9.32;2.75;;;5.20;99.90;;;;;;5459598;26;20009;-78
2024/04/17 02:36:23;;;;;;;7.07;2.55;;;5.20;99.90;;;;;;5455872;26;20017;-78
2024/04/17 02:38:49;;;;;;;8.85;2.90;;;5.20;99.90;;;;;;5456429;26;20033;-77
2024/04/17 02:41:14;;;;;;;9.18;2.45;;;5.20;99.90;;;;;;5457136;26;20180;-78
2024/04/17 02:43:40;;;;;;;7.95;2.33;;;5.30;99.90;;;;;;5457540;26;19994;-78
2024/04/17 02:46:06;;;;;;;8.43;2.50;;;5.20;99.90;;;;;;5456927;26;20087;-78
2024/04/17 02:48:31;;;;;;;10.30;2.88;;;5.20;99.90;;;;;;5447872;26;20022;-77
2024/04/17 02:50:57;;;;;;;9.88;2.83;;;5.20;99.90;;;;;;5451109;26;20455;-78
2024/04/17 02:53:23;;;;;;;11.75;2.88;;;5.30;99.90;;;;;;5454969;26;20003;-78
2024/04/17 02:55:49;;;;;;;13.52;2.90;;;5.30;99.90;;;;;;5455534;26;20007;-78
2024/04/17 02:58:15;;;;;;;13.48;3.13;;;5.30;99.90;;;;;;5454770;26;20003;-78
2024/04/17 03:00:40;;;;;;;10.77;2.90;;;5.40;99.90;;;;;;5455027;26;20336;-77
2024/04/17 03:03:06;;;;;;;8.82;2.53;;;5.40;99.90;;;;;;5456424;26;20019;-78
2024/04/17 03:05:35;;;;;;;6.93;2.45;;;5.40;99.90;;;;;;5424540;26;20338;-77
2024/04/17 03:08:20;;;;;;;9.68;2.65;;;5.40;99.90;;;;;;5428645;26;20083;-78
2024/04/17 03:10:46;;;;;;;11.88;2.88;;;5.50;99.90;;;;;;5454032;26;20451;-77
2024/04/17 03:13:33;;;;;;;11.20;2.72;;;5.50;99.90;;;;;;5422263;26;20052;-77
2024/04/17 03:16:02;;;;;;;11.20;2.65;;;5.50;99.90;;;;;;5454136;26;20011;-77
2024/04/17 03:18:29;;;;;;;10.07;2.88;;;5.60;99.90;;;;;;5453711;26;20462;-76
2024/04/17 03:21:01;;;;;;;8.73;2.72;;;5.60;99.90;;;;;;5452708;26;20018;-76
2024/04/17 03:23:27;;;;;;;10.25;2.80;;;5.60;99.90;;;;;;5453470;26;20063;-77
2024/04/17 03:25:57;;;;;;;11.10;3.10;;;5.60;99.90;;;;;;5446982;26;20084;-77
2024/04/17 03:28:25;;;;;;;8.27;2.57;;;5.60;99.90;;;;;;5447397;26;20022;-76
2024/04/17 03:30:51;;;;;;;10.30;2.55;;;5.60;99.90;;;;;;5452626;26;20346;-77
2024/04/17 03:33:17;;;;;;;10.10;2.45;;;5.60;99.90;;;;;;5450058;26;20399;-76
2024/04/17 03:35:51;;;;;;;8.38;2.55;;;5.60;99.90;;;;;;5467405;26;20049;-77
2024/04/17 03:38:17;;;;;;;14.85;2.88;;;5.70;99.90;;;;;;5466924;26;20019;-77
2024/04/17 03:40:43;;;;;;;11.93;2.80;;;5.70;99.90;;;;;;5452667;26;20035;-78
2024/04/17 03:43:11;;;;;;;12.02;3.03;;;5.70;99.90;;;;;;5449724;26;20007;-78
2024/04/17 03:45:37;;;;;;;10.65;2.78;;;5.70;99.90;;;;;;5459245;26;20017;-78
2024/04/17 03:48:03;;;;;;;9.98;2.63;;;5.70;99.90;;;;;;5452773;26;20352;-77
2024/04/17 03:50:29;;;;;;;13.57;2.80;;;5.70;99.90;;;;;;5451008;26;20007;-77
2024/04/17 03:52:54;;;;;;;13.82;3.05;;;5.80;99.90;;;;;;5450523;26;20079;-77
2024/04/17 03:55:21;;;;;;;8.90;2.75;;;5.80;99.90;;;;;;5422449;26;20009;-78
2024/04/17 03:57:48;;;;;;;11.63;2.85;;;5.80;99.90;;;;;;5456499;26;20003;-78
2024/04/17 04:00:15;;;;;;;9.77;2.50;;;5.80;99.90;;;;;;5458890;26;20015;-78
2024/04/17 04:02:40;;;;;;;11.35;2.50;;;5.80;99.90;;;;;;5456799;26;20514;-78
2024/04/17 04:05:26;;;;;;;11.00;2.85;;;5.90;99.90;;;;;;5423865;26;20003;-78
2024/04/17 04:07:52;;;;;;;9.23;2.50;;;5.80;99.90;;;;;;5446977;26;20009;-77
2024/04/17 04:10:17;;;;;;;6.82;2.25;;;5.90;99.90;;;;;;5449383;26;20017;-78
2024/04/17 04:12:43;;;;;;;10.82;2.30;;;5.90;99.90;;;;;;5450067;26;20018;-78
2024/04/17 04:15:09;;;;;;;5.90;1.95;;;5.90;99.90;;;;;;5431007;26;20031;-77
2024/04/17 04:17:35;;;;;;;5.65;1.98;;;5.90;99.90;;;;;;5452006;26;20014;-77
2024/04/17 04:20:02;;;;;;;5.65;1.80;;;5.90;99.90;;;;;;5449475;26;20003;-78
2024/04/17 04:22:27;;;;;;;7.03;1.90;;;5.90;99.90;;;;;;5416667;26;20447;-78
2024/04/17 04:24:53;;;;;;;5.70;2.05;;;5.90;99.90;;;;;;5472769;26;19998;-77
2024/04/17 04:27:19;;;;;;;8.40;1.90;;;5.90;99.90;;;;;;5467655;26;20034;-76
2024/04/17 04:29:45;;;;;;;4.00;1.73;;;5.90;99.90;;;;;;5463000;26;20002;-77
2024/04/17 04:32:10;;;;;;;7.22;1.90;;;5.90;99.90;;;;;;5456783;26;20017;-77
2024/04/17 04:34:36;;;;;;;5.05;1.90;;;6.00;99.90;;;;;;5451967;26;20015;-79
2024/04/17 04:37:02;;;;;;;6.72;1.80;;;6.00;99.90;;;;;;5446514;26;20817;-78
2024/04/17 04:39:28;;;;;;;4.20;1.70;;;6.00;99.90;;;;;;5448029;26;20451;-77
2024/04/17 04:41:54;;;;;;;4.40;1.77;;;6.00;99.90;;;;;;5443513;26;20436;-77
2024/04/17 04:44:20;;;;;;;7.82;1.45;;;6.30;99.90;;;;;;5450064;26;20007;-78
2024/04/17 04:46:46;;;;;;;6.40;1.67;;;6.10;99.90;;;;;;5401844;26;20085;-77
2024/04/17 04:49:12;;;;;;;8.38;2.05;;;6.10;99.90;;;;;;5452657;26;20015;-78
2024/04/17 04:51:37;;;;;;;7.35;1.60;;;6.10;99.90;;;;;;5451890;26;20075;-79
2024/04/17 04:54:03;;;;;;;6.00;1.80;;;6.10;99.90;;;;;;5424923;26;20013;-78
2024/04/17 04:56:29;;;;;;;8.27;1.67;;;6.20;99.90;;;;;;5455381;26;20007;-78
2024/04/17 04:58:54;;;;;;;10.80;1.85;;;6.20;99.90;;;;;;5448649;26;20003;-78
2024/04/17 05:01:20;;;;;;;5.22;1.45;;;6.20;99.90;;;;;;5421282;26;20021;-78
2024/04/17 05:03:46;;;;;;;7.00;1.90;;;6.20;99.90;;;;;;5453420;26;20079;-78
2024/04/17 05:06:12;;;;;;;5.78;1.85;;;6.20;99.90;;;;;;5443903;26;20502;-77
2024/04/17 05:08:37;;;;;;;7.80;1.48;;;6.20;99.90;;;;;;5444654;26;20017;-78
2024/04/17 05:11:03;;;;;;;5.10;1.80;;;6.20;99.90;;;;;;5455333;26;20073;-78
2024/04/17 05:13:29;;;;;;;5.82;1.60;;;6.20;99.90;;;;;;5437381;26;20015;-78
2024/04/17 05:15:55;;;;;;;7.25;1.60;;;6.20;99.90;;;;;;5441888;26;20017;-77
2024/04/17 05:18:21;;;;;;;5.43;1.92;;;6.20;99.90;;;;;;5451174;26;20007;-77
2024/04/17 05:20:47;;;;;;;6.90;2.08;;;6.30;99.90;;;;;;5438444;26;20010;-77
2024/04/17 05:23:12;;;;;;;3.95;1.83;;;6.20;99.90;;;;;;5414711;26;20007;-77
2024/04/17 05:25:40;;;;;;;9.23;2.08;;;6.20;99.90;;;;;;5438713;26;20020;-77
2024/04/17 05:28:05;;;;;;;4.18;1.88;;;6.30;99.90;;;;;;5412869;26;20017;-78
2024/04/17 05:30:32;;;;;;;6.88;2.25;;;6.30;99.90;;;;;;5449919;26;20007;-78
2024/04/17 05:32:57;;;;;;;6.32;1.70;;;6.40;99.90;;;;;;5458285;26;20015;-77
2024/04/17 05:35:23;;;;;;;4.85;1.58;;;6.40;99.90;;;;;;5465593;26;20082;-77
2024/04/17 05:37:49;;;;;;;6.20;1.70;;;6.50;99.90;;;;;;5456734;26;20039;-77
2024/04/17 05:40:14;;;;;;;5.72;1.60;;;6.50;99.90;;;;;;5457333;26;20007;-78
2024/04/17 05:42:40;;;;;;;10.45;2.00;;;6.50;99.90;;;;;;5449999;26;20008;-79
2024/04/17 05:45:06;;;;;;;7.25;1.77;;;6.50;99.90;;;;;;5452931;26;20728;-78
2024/04/17 05:47:32;;;;;;;8.55;1.77;;;6.60;99.90;;;;;;5454580;26;20007;-78
2024/04/17 05:49:57;;;;;;;6.22;1.42;;;7.20;99.90;;;;;;5449093;26;20003;-78
2024/04/17 05:52:23;;;;;;;7.13;1.67;;;6.70;99.90;;;;;;5454851;26;20060;-78
2024/04/17 05:54:49;;;;;;;10.88;1.90;;;6.80;99.90;;;;;;5453970;26;20003;-78
2024/04/17 05:57:14;;;;;;;7.30;1.65;;;6.70;99.90;;;;;;5455363;26;20018;-78
2024/04/17 05:59:40;;;;;;;6.85;1.60;;;6.80;99.90;;;;;;5453103;26;20359;-78
2024/04/17 06:02:06;;;;;;;4.50;1.30;;;6.80;99.90;;;;;;5454031;26;20014;-78
2024/04/17 06:04:32;;;;;;;6.28;1.80;;;6.90;99.90;;;;;;5422590;26;20018;-78
2024/04/17 06:06:58;;;;;;;3.92;1.23;;;7.00;99.90;;;;;;5453758;26;20416;-78
2024/04/17 06:09:24;;;;;;;6.15;1.50;;;7.00;99.90;;;;;;5453600;26;20076;-78
2024/04/17 06:11:50;;;;;;;4.55;1.52;;;7.10;99.90;;;;;;5453723;26;20018;-78
2024/04/17 06:14:16;;;;;;;9.27;1.63;;;7.10;99.90;;;;;;5422963;26;20038;-80
2024/04/17 06:16:45;;;;;;;4.60;1.50;;;7.20;99.90;;;;;;5455222;26;20007;-78
2024/04/17 06:19:11;;;;;;;3.35;1.35;;;7.70;99.90;;;;;;5453866;26;20007;-78
2024/04/17 06:21:37;;;;;;;11.73;1.73;;;7.30;99.90;;;;;;5441355;26;19999;-79
2024/04/17 06:24:03;;;;;;;5.55;1.73;;;7.30;99.90;;;;;;5447752;26;20014;-78
2024/04/17 06:26:29;;;;;;;8.48;2.20;;;7.30;99.90;;;;;;5438289;26;20015;-79
2024/04/17 06:28:56;;;;;;;6.50;1.33;;;7.40;99.90;;;;;;5452545;26;20007;-78
2024/04/17 06:31:22;;;;;;;7.80;1.60;;;7.40;99.90;;;;;;5449299;26;20017;-78
2024/04/17 06:33:48;;;;;;;6.85;1.50;;;7.40;99.90;;;;;;5448142;26;20007;-79
2024/04/17 06:36:14;;;;;;;6.78;1.45;;;7.40;99.90;;;;;;5446586;26;20006;-79
2024/04/17 06:38:39;;;;;;;9.88;1.55;;;7.40;99.90;;;;;;5443357;26;20003;-79
2024/04/17 06:41:05;;;;;;;8.10;1.70;;;7.40;99.90;;;;;;5441082;26;20076;-79
2024/04/17 06:43:31;;;;;;;7.00;1.70;;;7.40;99.90;;;;;;5449563;26;20455;-79
2024/04/17 06:45:56;;;;;;;6.90;1.52;;;7.50;99.90;;;;;;5436577;26;20084;-79
2024/04/17 06:48:22;;;;;;;11.02;1.85;;;7.60;99.90;;;;;;5417803;26;20447;-79
2024/04/17 06:50:48;;;;;;;10.95;1.50;;;7.40;99.90;;;;;;5446013;26;20042;-79
2024/04/17 06:53:13;;;;;;;8.82;1.73;;;7.40;99.90;;;;;;5445291;26;20451;-78
2024/04/17 06:55:41;;;;;;;9.25;1.77;;;7.50;99.90;;;;;;5432911;26;20035;-79
2024/04/17 06:58:07;;;;;;;7.40;1.95;;;7.40;99.90;;;;;;5436150;26;20007;-78
2024/04/17 07:00:34;;;;;;;7.43;1.75;;;7.40;99.90;;;;;;5446005;26;20042;-78
2024/04/17 07:03:00;;;;;;;10.30;1.90;;;7.40;99.90;;;;;;5451552;26;20014;-79
2024/04/17 07:05:27;;;;;;;12.10;1.55;;;7.40;99.90;;;;;;5443534;26;20007;-78
2024/04/17 07:07:53;;;;;;;11.38;2.20;;;7.40;99.90;;;;;;5446984;26;20003;-78
2024/04/17 07:10:19;;;;;;;7.32;2.38;;;7.50;99.90;;;;;;5450538;26;20014;-78
2024/04/17 07:12:46;;;;;;;12.27;2.40;;;7.50;99.90;;;;;;5449573;26;20014;-78
2024/04/17 07:15:11;;;;;;;14.88;2.53;;;7.40;99.90;;;;;;5443200;26;20404;-78
2024/04/17 07:17:38;;;;;;;9.50;2.22;;;7.70;99.90;;;;;;5451446;26;20011;-78
2024/04/17 07:20:04;;;;;;;14.77;1.95;;;7.40;99.90;;;;;;5450938;26;20006;-78
2024/04/17 07:22:30;;;;;;;10.10;1.73;;;7.40;99.90;;;;;;5447632;26;20079;-78
2024/04/17 07:24:55;;;;;;;8.15;1.95;;;7.40;99.90;;;;;;5451940;26;20011;-79
2024/04/17 07:27:22;;;;;;;10.70;1.80;;;7.30;99.90;;;;;;5442711;26;20007;-78
2024/04/17 07:29:48;;;;;;;19.52;2.20;;;7.30;99.90;;;;;;5450584;26;20052;-77
2024/04/17 07:32:13;;;;;;;11.82;1.63;;;7.30;99.90;;;;;;5439187;26;20010;-77
2024/04/17 07:34:39;;;;;;;12.20;2.22;;;7.30;99.90;;;;;;5441715;26;20007;-79
2024/04/17 07:37:05;;;;;;;11.60;2.70;;;7.30;99.90;;;;;;5417673;26;20385;-79
2024/04/17 07:39:31;;;;;;;8.70;1.73;;;7.30;99.90;;;;;;5449891;26;20006;-79
2024/04/17 07:41:57;;;;;;;11.27;2.22;;;7.30;99.90;;;;;;5445071;26;20003;-79
2024/04/17 07:44:22;;;;;;;11.02;2.35;;;7.40;99.90;;;;;;5431480;26;20022;-79
2024/04/17 07:46:48;;;;;;;9.05;2.22;;;7.20;99.90;;;;;;5440560;26;20084;-79
2024/04/17 07:49:15;;;;;;;11.90;2.30;;;7.30;99.90;;;;;;5448209;26;20007;-79
2024/04/17 07:51:41;;;;;;;8.93;1.98;;;7.20;99.90;;;;;;5410224;26;20035;-79
2024/04/17 07:54:07;;;;;;;10.05;2.20;;;7.20;99.90;;;;;;5407741;26;20355;-80
2024/04/17 07:56:33;;;;;;;10.48;2.08;;;7.30;99.90;;;;;;5450151;26;20017;-79
2024/04/17 07:58:58;;;;;;;13.10;2.35;;;7.40;99.90;;;;;;5447561;26;20040;-79
2024/04/17 08:01:24;;;;;;;12.50;2.30;;;7.30;99.90;;;;;;5446763;26;20007;-79
2024/04/17 08:03:50;;;;;;;9.02;2.20;;;7.30;99.90;;;;;;5451301;26;20047;-78
2024/04/17 08:06:20;;;;;;;11.93;2.35;;;7.30;99.90;;;;;;5419613;26;20340;-78
2024/04/17 08:08:47;;;;;;;8.40;1.90;;;7.30;99.90;;;;;;5450460;26;20082;-79
2024/04/17 08:11:13;;;;;;;9.63;1.83;;;7.30;99.90;;;;;;5446727;26;20377;-79
2024/04/17 08:13:39;;;;;;;11.00;2.28;;;7.30;99.90;;;;;;5450864;26;20467;-79
2024/04/17 08:16:05;;;;;;;20.20;2.70;;;7.30;99.90;;;;;;5448189;26;20018;-79
2024/04/17 08:18:32;;;;;;;12.45;2.75;;;7.40;99.90;;;;;;5451724;26;20022;-79
2024/04/17 08:20:58;;;;;;;12.10;2.00;;;7.40;99.90;;;;;;5439300;26;20006;-79
2024/04/17 08:23:24;;;;;;;10.75;1.98;;;7.50;99.90;;;;;;5420538;26;20007;-79
2024/04/17 08:25:50;;;;;;;9.00;1.90;;;7.50;99.90;;;;;;5443866;26;20021;-79
2024/04/17 08:28:17;;;;;;;13.65;2.10;;;7.60;99.90;;;;;;5447894;26;20000;-79
2024/04/17 08:30:43;;;;;;;13.43;2.63;;;7.60;99.90;;;;;;5452633;26;20014;-79
2024/04/17 08:33:08;;;;;;;12.57;2.00;;;7.70;99.90;;;;;;5439079;26;20014;-79
2024/04/17 08:35:38;;;;;;;12.63;2.05;;;7.80;99.90;;;;;;5424723;26;20007;-76
2024/04/17 08:38:04;;;;;;;8.50;1.98;;;7.80;99.90;;;;;;5436486;26;20007;-79
2024/04/17 08:40:30;;;;;;;16.88;2.65;;;7.80;99.90;;;;;;5444270;26;20007;-79
2024/04/17 08:43:01;;;;;;;11.63;1.75;;;7.80;99.90;;;;;;5450122;26;20549;-78
2024/04/17 08:45:34;;;;;;;10.20;1.90;;;7.90;99.90;;;;;;5453655;26;20007;-78
2024/04/17 08:48:06;;;;;;;12.48;2.78;;;8.10;99.90;;;;;;5441556;26;20086;-78
2024/04/17 08:50:33;;;;;;;11.60;1.80;;;8.40;99.90;;;;;;5452824;26;20039;-78
2024/04/17 08:53:02;;;;;;;10.43;2.13;;;8.70;99.90;;;;;;5421074;26;20486;-78
2024/04/17 08:55:28;;;;;;;10.15;1.70;;;9.00;99.90;;;;;;5453179;26;20079;-78
2024/04/17 08:57:55;;;;;;;6.47;1.75;;;9.40;99.90;;;;;;5421692;26;20022;-75
2024/04/17 09:00:25;;;;;;;13.05;1.95;;;9.70;99.90;;;;;;5451990;26;20021;-75
2024/04/17 09:02:57;;;;;;;12.25;1.95;;;10.00;99.90;;;;;;5451881;26;20007;-75
2024/04/17 09:05:27;;;;;;;7.93;1.88;;;10.00;99.90;;;;;;5421113;26;20446;-75
2024/04/17 09:07:54;;;;;;;9.98;1.88;;;9.90;99.90;;;;;;5420210;26;20007;-75
2024/04/17 09:10:20;;;;;;;9.80;1.67;;;9.70;99.90;;;;;;5420244;26;20018;-75
2024/04/17 09:12:46;;;;;;;10.50;1.75;;;9.60;99.90;;;;;;5451836;26;20015;-75
2024/04/17 09:15:15;;;;;;;10.40;1.95;;;9.60;99.90;;;;;;5437834;26;20009;-75
2024/04/17 09:17:41;;;;;;;8.75;1.90;;;9.70;99.90;;;;;;5451348;26;20002;-75
2024/04/17 09:20:09;;;;;;;9.48;1.92;;;9.90;99.90;;;;;;5451565;26;20030;-75
2024/04/17 09:22:35;;;;;;;;;;;10.20;99.90;;;;;;5452974;26;20007;-75
2024/04/17 09:25:02;;;;;;;6.80;1.30;;;10.60;99.90;;;;;;5421004;26;20269;-76
2024/04/17 09:27:27;;;;;;;8.73;1.25;;;10.50;99.90;;;;;;5452151;26;20459;-76
2024/04/17 09:29:53;;;;;;;4.93;1.30;;;10.50;99.90;;;;;;5451430;26;20083;-76
2024/04/17 09:32:19;;;;;;;;;;;10.60;99.90;;;;;;5453075;26;20019;-76
2024/04/17 09:34:44;;;;;;;9.98;2.10;;;10.80;99.90;;;;;;5451459;26;19939;-76
2024/04/17 09:37:12;;;;;;;8.40;1.35;;;10.90;99.90;;;;;;5436625;26;20006;-76
2024/04/17 09:39:38;;;;;;;8.98;1.55;;;11.00;99.90;;;;;;5449973;26;20047;-75
2024/04/17 09:42:08;;;;;;;10.98;1.75;;;11.30;99.90;;;;;;5452512;26;20007;-76
2024/04/17 09:44:37;;;;;;;8.82;1.67;;;11.20;99.90;;;;;;5451342;26;20022;-76
2024/04/17 09:47:09;;;;;;;6.78;1.60;;;11.00;99.90;;;;;;5451773;26;20436;-75
2024/04/17 09:49:37;;;;;;;8.23;1.45;;;10.80;99.90;;;;;;5451570;26;20533;-76
2024/04/17 09:52:05;;;;;;;10.43;1.42;;;10.60;99.90;;;;;;5451561;26;20003;-76
2024/04/17 09:54:31;;;;;;;7.85;1.65;;;10.30;99.90;;;;;;5451949;26;20539;-76
2024/04/17 09:56:57;;;;;;;5.63;1.45;;;10.10;99.90;;;;;;5444969;26;19999;-76
2024/04/17 09:59:23;;;;;;;6.03;1.20;;;10.00;99.90;;;;;;5437201;26;20458;-75
2024/04/17 10:01:50;;;;;;;11.25;1.50;;;9.80;99.90;;;;;;5434307;26;20084;-76
2024/04/17 10:04:17;;;;;;;5.82;1.35;;;9.80;99.90;;;;;;5453568;26;20006;-76
2024/04/17 10:06:43;;;;;;;8.48;1.27;;;9.70;99.90;;;;;;5451914;26;20015;-76
2024/04/17 10:09:16;;;;;;;10.27;1.35;;;9.70;99.90;;;;;;5419519;26;20015;-77
2024/04/17 10:11:42;;;;;;;8.90;1.23;;;9.80;99.90;;;;;;5452010;26;19995;-76
2024/04/17 10:14:12;;;;;;;6.90;1.40;;;9.80;99.90;;;;;;5455746;26;20014;-76
2024/04/17 10:16:39;;;;;;;3.25;0.93;;;10.00;99.90;;;;;;5424302;26;20014;-76
2024/04/17 10:19:05;;;;;;;4.38;1.38;;;10.20;99.90;;;;;;5455166;26;20017;-76
2024/04/17 10:21:35;;;;;;;7.25;1.60;;;10.60;99.90;;;;;;5418696;26;19999;-76
2024/04/17 10:24:09;;;;;;;5.05;1.30;;;11.20;99.90;;;;;;5441572;26;20367;-78
2024/04/17 10:26:48;;;;;;;5.78;1.10;;;11.50;99.90;;;;;;5446766;26;20014;-77
2024/04/17 10:29:22;;;;;;;3.13;1.10;;;11.60;99.90;;;;;;5433656;26;20007;-77
2024/04/17 10:32:01;;;;;;;5.15;1.10;;;11.50;99.90;;;;;;5452259;26;20014;-79
2024/04/17 10:34:46;;;;;;;3.67;0.90;;;11.30;99.90;;;;;;5407837;26;20007;-79
2024/04/17 10:37:12;;;;;;;4.65;1.30;;;11.10;99.90;;;;;;5448935;26;22162;-78
2024/04/17 10:39:39;;;;;;;3.38;0.90;;;11.00;99.90;;;;;;5412799;26;20017;-78
2024/04/17 10:42:06;;;;;;;10.23;1.52;;;11.00;99.90;;;;;;5449784;26;20006;-78
2024/04/17 10:44:34;;;;;;;3.55;1.00;;;11.20;99.90;;;;;;5445923;26;20015;-78
2024/04/17 10:47:04;;;;;;;6.93;1.10;;;11.30;99.90;;;;;;5413267;26;19999;-79
2024/04/17 10:49:37;;;;;;;3.70;0.93;;;11.40;99.90;;;;;;5439884;26;20003;-78
2024/04/17 10:52:03;;;;;;;5.88;1.05;;;11.60;99.90;;;;;;5443501;26;19998;-78
2024/04/17 10:54:29;;;;;;;5.50;1.15;;;11.80;99.90;;;;;;5442173;26;20271;-78
2024/04/17 10:56:59;;;;;;;7.60;1.25;;;12.00;99.90;;;;;;5436207;26;20027;-78
2024/04/17 10:59:28;;;;;;;7.47;1.40;;;12.20;99.90;;;;;;5442781;26;20007;-80
2024/04/17 11:01:55;;;;;;;10.80;1.77;;;12.40;99.90;;;;;;5436345;26;20010;-78
2024/04/17 11:04:23;;;;;;;6.13;1.13;;;12.60;99.90;;;;;;5405224;26;20015;-79
2024/04/17 11:06:49;;;;;;;9.45;1.60;;;12.90;99.90;;;;;;5448482;26;20049;-77
2024/04/17 11:09:16;;;;;;;3.80;1.08;;;13.20;99.90;;;;;;5435650;26;20079;-77
2024/04/17 11:11:47;;;;;;;9.90;1.40;;;13.40;99.90;;;;;;5416722;26;20456;-78
2024/04/17 11:14:14;;;;;;;11.75;1.40;;;13.60;99.90;;;;;;5417966;26;20017;-78
2024/04/17 11:16:40;;;;;;;6.13;1.10;;;13.60;99.90;;;;;;5442777;26;20426;-77
2024/04/17 11:19:06;;;;;;;7.07;1.38;;;14.00;99.90;;;;;;5433713;26;20467;-77
2024/04/17 11:21:35;;;;;;;10.07;1.60;;;14.00;99.90;;;;;;5436010;26;20479;-77
2024/04/17 11:24:02;;;;;;;6.20;1.38;;;14.10;99.90;;;;;;5402841;26;20177;-78
2024/04/17 11:26:30;;;;;;;6.97;1.40;;;14.10;99.90;;;;;;5439627;26;20021;-78
2024/04/17 11:28:56;;;;;;;5.80;1.10;;;14.20;99.90;;;;;;5447095;26;20007;-77
2024/04/17 11:31:22;;;;;;;10.55;1.55;;;14.30;99.90;;;;;;5439372;26;20006;-77
2024/04/17 11:33:48;;;;;;;13.02;1.60;;;14.30;99.90;;;;;;5446392;26;20351;-78
2024/04/17 11:36:14;;;;;;;5.55;1.30;;;14.30;99.90;;;;;;5448504;26;20007;-78
2024/04/17 11:38:41;;;;;;;6.05;1.42;;;14.30;99.90;;;;;;5448493;26;20022;-78
2024/04/17 11:41:07;;;;;;;5.47;1.20;;;14.30;99.90;;;;;;5420921;26;20003;-78
2024/04/17 11:43:33;;;;;;;8.18;1.20;;;14.20;99.90;;;;;;5443716;26;20006;-78
2024/04/17 11:45:59;;;;;;;10.00;1.20;;;14.30;99.90;;;;;;5419169;26;20348;-78
2024/04/17 11:48:25;;;;;;;7.55;1.30;;;14.30;99.90;;;;;;5449551;26;20013;-77
2024/04/17 11:50:50;;;;;;;60.78;3.20;;;14.40;99.90;;;;;;5450140;26;20326;-75
2024/04/17 11:53:16;;;;;;;13.27;1.70;;;14.40;99.90;;;;;;5450503;26;20435;-77
2024/04/17 11:55:42;;;;;;;9.90;1.70;;;14.40;99.90;;;;;;5450592;26;20015;-77
2024/04/17 11:58:08;;;;;;;4.85;1.10;;;14.30;99.90;;;;;;5449302;26;20018;-76
2024/04/17 12:00:33;;;;;;;6.47;1.50;;;14.40;99.90;;;;;;5412339;26;20015;-77
2024/04/17 12:02:59;;;;;;;8.93;1.30;;;14.50;99.90;;;;;;5445158;26;20007;-77
2024/04/17 12:05:26;;;;;;;1.77;0.75;;;14.60;99.90;;;;;;5449315;26;20007;-77
2024/04/17 12:07:52;;;;;;;4.10;0.93;;;14.80;99.90;;;;;;5449187;26;20017;-76
2024/04/17 12:10:19;;;;;;;6.63;1.30;;;14.90;99.90;;;;;;5439681;26;20015;-77
2024/04/17 12:12:46;;;;;;;6.28;1.10;;;15.00;99.90;;;;;;5450273;26;20075;-80
2024/04/17 12:15:11;;;;;;;7.90;1.05;;;15.20;99.90;;;;;;5451275;26;19999;-77
2024/04/17 12:17:37;;;;;;;7.18;1.15;;;15.30;99.90;;;;;;5450342;26;20018;-77
2024/04/17 12:20:03;;;;;;;4.03;1.02;;;15.30;99.90;;;;;;5462794;20;20003;-76
2024/04/17 12:22:30;;;;;;;7.95;1.33;;;15.20;99.90;;;;;;5447078;26;20015;-74
2024/04/17 12:27:40;;;;;;;5.93;1.25;;;15.10;99.90;;;;;;5450063;26;20018;-76
2024/04/17 12:30:06;;;;;;;10.65;6.57;;;14.90;99.90;;;;;;5447807;26;20003;-78
2024/04/17 12:32:31;;;;;;;7.32;2.80;;;14.90;99.90;;;;;;5433734;26;20030;-76
2024/04/17 12:34:57;;;;;;;7.00;2.08;;;14.80;99.90;;;;;;5443589;26;20377;-75
2024/04/17 12:37:23;;;;;;;9.25;2.38;;;14.60;99.90;;;;;;5465197;26;20027;-77
2024/04/17 12:39:48;;;;;;;6.88;1.42;;;14.40;99.90;;;;;;5443839;26;20351;-78
2024/04/17 12:42:15;;;;;;;5.32;1.33;;;14.20;99.90;;;;;;5455630;26;20235;-76
2024/04/17 12:44:41;;;;;;;7.18;2.20;;;13.90;99.90;;;;;;5427874;26;20022;-77
2024/04/17 12:47:06;;;;;;;16.48;9.88;;;13.70;99.90;;;;;;5452244;26;20428;-77
2024/04/17 12:49:32;;;;;;;10.43;6.50;;;13.50;99.90;;;;;;5446742;26;20037;-77
2024/04/17 12:51:58;;;;;;;11.65;3.67;;;13.30;99.90;;;;;;5446856;26;20023;-76